sensor_id;sensor_type;location;lat;lon;timestamp;P1;durP1;ratioP1;P2;durP2;ratioP2
52102;SDS011;38101;53.126;6.878;2022-09-27T00:01:15;6.38;;;2.38;;
52102;SDS011;38101;53.126;6.878;2022-09-27T00:03:41;3.92;;;1.52;;
52102;SDS011;38101;53.126;6.878;2022-09-27T00:08:36;4.82;;;1.48;;
52102;SDS011;38101;53.126;6.878;2022-09-27T00:11:03;2.45;;;1.30;;
52102;SDS011;38101;53.126;6.878;2022-09-27T00:13:30;6.65;;;1.60;;
52102;SDS011;38101;53.126;6.878;2022-09-27T00:19:37;4.72;;;1.80;;
52102;SDS011;38101;53.126;6.878;2022-09-27T00:22:03;4.75;;;1.88;;
52102;SDS011;38101;53.126;6.878;2022-09-27T00:24:29;4.50;;;1.88;;
52102;SDS011;38101;53.126;6.878;2022-09-27T00:26:56;5.57;;;1.75;;
52102;SDS011;38101;53.126;6.878;2022-09-27T00:29:21;4.72;;;1.80;;
52102;SDS011;38101;53.126;6.878;2022-09-27T00:31:47;4.25;;;2.00;;
52102;SDS011;38101;53.126;6.878;2022-09-27T00:34:21;7.22;;;1.80;;
52102;SDS011;38101;53.126;6.878;2022-09-27T00:36:49;4.03;;;1.80;;
52102;SDS011;38101;53.126;6.878;2022-09-27T00:39:15;4.57;;;1.60;;
52102;SDS011;38101;53.126;6.878;2022-09-27T00:41:41;6.20;;;1.77;;
52102;SDS011;38101;53.126;6.878;2022-09-27T00:49:36;4.97;;;1.55;;
52102;SDS011;38101;53.126;6.878;2022-09-27T00:52:16;3.87;;;1.70;;
52102;SDS011;38101;53.126;6.878;2022-09-27T00:54:46;5.05;;;1.60;;
52102;SDS011;38101;53.126;6.878;2022-09-27T00:57:16;6.03;;;1.77;;
52102;SDS011;38101;53.126;6.878;2022-09-27T00:59:48;5.53;;;1.98;;
52102;SDS011;38101;53.126;6.878;2022-09-27T01:02:26;4.97;;;1.40;;
52102;SDS011;38101;53.126;6.878;2022-09-27T01:04:53;4.40;;;1.40;;
52102;SDS011;38101;53.126;6.878;2022-09-27T01:07:19;5.15;;;1.80;;
52102;SDS011;38101;53.126;6.878;2022-09-27T01:09:46;3.63;;;1.33;;
52102;SDS011;38101;53.126;6.878;2022-09-27T01:15:00;5.07;;;1.27;;
52102;SDS011;38101;53.126;6.878;2022-09-27T01:28:46;3.30;;;1.38;;
52102;SDS011;38101;53.126;6.878;2022-09-27T01:34:26;4.38;;;1.52;;
52102;SDS011;38101;53.126;6.878;2022-09-27T01:37:09;5.63;;;1.50;;
52102;SDS011;38101;53.126;6.878;2022-09-27T01:39:56;3.92;;;1.30;;
52102;SDS011;38101;53.126;6.878;2022-09-27T01:42:41;4.00;;;1.20;;
52102;SDS011;38101;53.126;6.878;2022-09-27T01:50:20;6.00;;;1.50;;
52102;SDS011;38101;53.126;6.878;2022-09-27T01:53:18;3.20;;;1.33;;
52102;SDS011;38101;53.126;6.878;2022-09-27T01:56:05;3.22;;;1.40;;
52102;SDS011;38101;53.126;6.878;2022-09-27T02:01:23;4.93;;;1.48;;
52102;SDS011;38101;53.126;6.878;2022-09-27T02:03:51;3.50;;;1.10;;
52102;SDS011;38101;53.126;6.878;2022-09-27T02:06:29;4.80;;;1.38;;
52102;SDS011;38101;53.126;6.878;2022-09-27T02:09:03;6.15;;;1.45;;
52102;SDS011;38101;53.126;6.878;2022-09-27T02:11:34;3.22;;;1.60;;
52102;SDS011;38101;53.126;6.878;2022-09-27T02:14:05;4.18;;;1.73;;
52102;SDS011;38101;53.126;6.878;2022-09-27T02:16:49;4.18;;;1.20;;
52102;SDS011;38101;53.126;6.878;2022-09-27T02:22:16;5.18;;;1.50;;
52102;SDS011;38101;53.126;6.878;2022-09-27T02:28:02;6.13;;;1.48;;
52102;SDS011;38101;53.126;6.878;2022-09-27T02:30:50;3.58;;;1.40;;
52102;SDS011;38101;53.126;6.878;2022-09-27T02:33:17;4.43;;;1.40;;
52102;SDS011;38101;53.126;6.878;2022-09-27T02:35:46;5.20;;;1.20;;
52102;SDS011;38101;53.126;6.878;2022-09-27T02:38:12;3.83;;;1.20;;
52102;SDS011;38101;53.126;6.878;2022-09-27T02:40:43;5.75;;;1.67;;
52102;SDS011;38101;53.126;6.878;2022-09-27T02:43:10;3.78;;;1.27;;
52102;SDS011;38101;53.126;6.878;2022-09-27T02:51:19;1.92;;;1.20;;
52102;SDS011;38101;53.126;6.878;2022-09-27T03:02:58;2.08;;;1.30;;
52102;SDS011;38101;53.126;6.878;2022-09-27T03:05:31;2.25;;;1.08;;
52102;SDS011;38101;53.126;6.878;2022-09-27T03:08:13;2.70;;;1.20;;
52102;SDS011;38101;53.126;6.878;2022-09-27T03:10:39;3.17;;;1.10;;
52102;SDS011;38101;53.126;6.878;2022-09-27T03:13:05;3.25;;;1.23;;
52102;SDS011;38101;53.126;6.878;2022-09-27T03:15:31;6.38;;;2.13;;
52102;SDS011;38101;53.126;6.878;2022-09-27T03:17:56;3.47;;;1.33;;
52102;SDS011;38101;53.126;6.878;2022-09-27T03:20:22;5.32;;;1.10;;
52102;SDS011;38101;53.126;6.878;2022-09-27T03:22:48;5.88;;;1.50;;
52102;SDS011;38101;53.126;6.878;2022-09-27T03:25:13;2.95;;;1.30;;
52102;SDS011;38101;53.126;6.878;2022-09-27T03:27:42;2.55;;;1.10;;
52102;SDS011;38101;53.126;6.878;2022-09-27T03:30:09;4.13;;;1.13;;
52102;SDS011;38101;53.126;6.878;2022-09-27T03:32:36;5.80;;;1.55;;
52102;SDS011;38101;53.126;6.878;2022-09-27T03:35:02;4.35;;;1.50;;
52102;SDS011;38101;53.126;6.878;2022-09-27T03:37:27;4.00;;;1.30;;
52102;SDS011;38101;53.126;6.878;2022-09-27T03:39:53;2.15;;;1.23;;
52102;SDS011;38101;53.126;6.878;2022-09-27T03:42:19;4.68;;;1.40;;
52102;SDS011;38101;53.126;6.878;2022-09-27T03:44:45;4.63;;;1.00;;
52102;SDS011;38101;53.126;6.878;2022-09-27T03:47:11;6.30;;;1.33;;
52102;SDS011;38101;53.126;6.878;2022-09-27T03:49:36;4.93;;;1.40;;
52102;SDS011;38101;53.126;6.878;2022-09-27T03:52:02;3.70;;;1.40;;
52102;SDS011;38101;53.126;6.878;2022-09-27T03:54:28;6.93;;;1.50;;
52102;SDS011;38101;53.126;6.878;2022-09-27T03:56:53;5.70;;;1.13;;
52102;SDS011;38101;53.126;6.878;2022-09-27T03:59:19;4.53;;;1.33;;
52102;SDS011;38101;53.126;6.878;2022-09-27T04:01:45;4.00;;;1.58;;
52102;SDS011;38101;53.126;6.878;2022-09-27T04:04:10;2.47;;;0.88;;
52102;SDS011;38101;53.126;6.878;2022-09-27T04:06:37;3.45;;;1.08;;
52102;SDS011;38101;53.126;6.878;2022-09-27T04:09:02;4.38;;;1.25;;
52102;SDS011;38101;53.126;6.878;2022-09-27T04:11:28;4.85;;;1.08;;
52102;SDS011;38101;53.126;6.878;2022-09-27T04:13:54;4.30;;;1.20;;
52102;SDS011;38101;53.126;6.878;2022-09-27T04:16:20;2.78;;;0.98;;
52102;SDS011;38101;53.126;6.878;2022-09-27T04:18:46;2.15;;;0.90;;
52102;SDS011;38101;53.126;6.878;2022-09-27T04:21:12;2.53;;;1.10;;
52102;SDS011;38101;53.126;6.878;2022-09-27T04:23:38;6.78;;;1.38;;
52102;SDS011;38101;53.126;6.878;2022-09-27T04:26:04;4.03;;;1.10;;
52102;SDS011;38101;53.126;6.878;2022-09-27T04:28:30;4.40;;;1.02;;
52102;SDS011;38101;53.126;6.878;2022-09-27T04:30:56;2.55;;;0.93;;
52102;SDS011;38101;53.126;6.878;2022-09-27T04:33:22;3.28;;;1.05;;
52102;SDS011;38101;53.126;6.878;2022-09-27T04:35:48;8.05;;;1.40;;
52102;SDS011;38101;53.126;6.878;2022-09-27T04:38:32;3.35;;;0.90;;
52102;SDS011;38101;53.126;6.878;2022-09-27T04:40:58;3.97;;;1.15;;
52102;SDS011;38101;53.126;6.878;2022-09-27T04:43:26;2.67;;;0.90;;
52102;SDS011;38101;53.126;6.878;2022-09-27T04:45:52;3.75;;;1.50;;
52102;SDS011;38101;53.126;6.878;2022-09-27T04:48:18;4.47;;;1.13;;
52102;SDS011;38101;53.126;6.878;2022-09-27T04:50:43;5.88;;;1.38;;
52102;SDS011;38101;53.126;6.878;2022-09-27T04:53:13;4.40;;;1.40;;
52102;SDS011;38101;53.126;6.878;2022-09-27T04:55:39;5.32;;;1.60;;
52102;SDS011;38101;53.126;6.878;2022-09-27T04:58:10;3.13;;;1.00;;
52102;SDS011;38101;53.126;6.878;2022-09-27T05:00:35;3.40;;;0.90;;
52102;SDS011;38101;53.126;6.878;2022-09-27T05:03:01;3.67;;;1.50;;
52102;SDS011;38101;53.126;6.878;2022-09-27T05:05:26;3.08;;;1.13;;
52102;SDS011;38101;53.126;6.878;2022-09-27T05:07:52;4.03;;;1.00;;
52102;SDS011;38101;53.126;6.878;2022-09-27T05:10:18;5.07;;;1.50;;
52102;SDS011;38101;53.126;6.878;2022-09-27T05:12:43;3.40;;;1.38;;
52102;SDS011;38101;53.126;6.878;2022-09-27T05:15:09;3.50;;;1.10;;
52102;SDS011;38101;53.126;6.878;2022-09-27T05:17:35;3.50;;;1.20;;
52102;SDS011;38101;53.126;6.878;2022-09-27T05:20:01;4.80;;;1.40;;
52102;SDS011;38101;53.126;6.878;2022-09-27T05:22:28;4.38;;;1.40;;
52102;SDS011;38101;53.126;6.878;2022-09-27T05:24:54;5.07;;;1.30;;
52102;SDS011;38101;53.126;6.878;2022-09-27T05:27:20;4.85;;;1.67;;
52102;SDS011;38101;53.126;6.878;2022-09-27T05:29:46;4.43;;;1.17;;
52102;SDS011;38101;53.126;6.878;2022-09-27T05:32:14;3.22;;;1.25;;
52102;SDS011;38101;53.126;6.878;2022-09-27T05:34:40;4.35;;;1.40;;
52102;SDS011;38101;53.126;6.878;2022-09-27T05:37:06;3.28;;;1.25;;
52102;SDS011;38101;53.126;6.878;2022-09-27T05:39:32;3.25;;;1.40;;
52102;SDS011;38101;53.126;6.878;2022-09-27T05:41:58;5.20;;;1.52;;
52102;SDS011;38101;53.126;6.878;2022-09-27T05:44:24;3.13;;;1.38;;
52102;SDS011;38101;53.126;6.878;2022-09-27T05:46:50;4.18;;;1.73;;
52102;SDS011;38101;53.126;6.878;2022-09-27T05:49:16;5.03;;;1.77;;
52102;SDS011;38101;53.126;6.878;2022-09-27T05:51:42;7.28;;;2.00;;
52102;SDS011;38101;53.126;6.878;2022-09-27T05:54:08;2.83;;;1.52;;
52102;SDS011;38101;53.126;6.878;2022-09-27T05:56:33;3.80;;;1.65;;
52102;SDS011;38101;53.126;6.878;2022-09-27T05:58:59;3.17;;;1.63;;
52102;SDS011;38101;53.126;6.878;2022-09-27T06:01:25;3.85;;;1.55;;
52102;SDS011;38101;53.126;6.878;2022-09-27T06:03:51;4.47;;;1.35;;
52102;SDS011;38101;53.126;6.878;2022-09-27T06:06:19;3.05;;;1.48;;
52102;SDS011;38101;53.126;6.878;2022-09-27T06:08:45;3.97;;;1.30;;
52102;SDS011;38101;53.126;6.878;2022-09-27T06:11:11;5.20;;;1.48;;
52102;SDS011;38101;53.126;6.878;2022-09-27T06:13:37;5.25;;;1.40;;
52102;SDS011;38101;53.126;6.878;2022-09-27T06:16:04;2.50;;;1.33;;
52102;SDS011;38101;53.126;6.878;2022-09-27T06:18:31;4.85;;;1.60;;
52102;SDS011;38101;53.126;6.878;2022-09-27T06:21:00;2.50;;;1.40;;
52102;SDS011;38101;53.126;6.878;2022-09-27T06:23:27;3.13;;;1.33;;
52102;SDS011;38101;53.126;6.878;2022-09-27T06:25:53;4.53;;;1.60;;
52102;SDS011;38101;53.126;6.878;2022-09-27T06:28:19;4.93;;;1.88;;
52102;SDS011;38101;53.126;6.878;2022-09-27T06:30:46;6.00;;;1.80;;
52102;SDS011;38101;53.126;6.878;2022-09-27T06:33:17;3.65;;;1.42;;
52102;SDS011;38101;53.126;6.878;2022-09-27T06:35:44;3.90;;;1.45;;
52102;SDS011;38101;53.126;6.878;2022-09-27T06:38:12;4.93;;;1.58;;
52102;SDS011;38101;53.126;6.878;2022-09-27T06:40:40;5.40;;;1.70;;
52102;SDS011;38101;53.126;6.878;2022-09-27T06:43:11;2.33;;;1.13;;
52102;SDS011;38101;53.126;6.878;2022-09-27T06:45:41;4.60;;;1.20;;
52102;SDS011;38101;53.126;6.878;2022-09-27T06:48:07;2.47;;;1.02;;
52102;SDS011;38101;53.126;6.878;2022-09-27T06:50:38;5.05;;;1.60;;
52102;SDS011;38101;53.126;6.878;2022-09-27T06:53:06;4.70;;;1.65;;
52102;SDS011;38101;53.126;6.878;2022-09-27T06:55:34;3.60;;;1.33;;
52102;SDS011;38101;53.126;6.878;2022-09-27T06:58:00;2.83;;;1.20;;
52102;SDS011;38101;53.126;6.878;2022-09-27T07:03:17;2.97;;;0.93;;
52102;SDS011;38101;53.126;6.878;2022-09-27T07:05:52;2.47;;;0.95;;
52102;SDS011;38101;53.126;6.878;2022-09-27T07:08:23;3.28;;;1.35;;
52102;SDS011;38101;53.126;6.878;2022-09-27T07:10:50;2.85;;;1.20;;
52102;SDS011;38101;53.126;6.878;2022-09-27T07:13:17;3.00;;;1.20;;
52102;SDS011;38101;53.126;6.878;2022-09-27T07:15:43;2.92;;;1.10;;
52102;SDS011;38101;53.126;6.878;2022-09-27T07:18:08;4.47;;;1.20;;
52102;SDS011;38101;53.126;6.878;2022-09-27T07:20:34;2.85;;;1.10;;
52102;SDS011;38101;53.126;6.878;2022-09-27T07:23:02;5.32;;;1.50;;
52102;SDS011;38101;53.126;6.878;2022-09-27T07:25:29;2.72;;;1.30;;
52102;SDS011;38101;53.126;6.878;2022-09-27T07:28:03;2.83;;;1.40;;
52102;SDS011;38101;53.126;6.878;2022-09-27T07:30:31;4.25;;;1.50;;
52102;SDS011;38101;53.126;6.878;2022-09-27T07:32:57;3.17;;;1.27;;
52102;SDS011;38101;53.126;6.878;2022-09-27T07:35:24;4.53;;;1.08;;
52102;SDS011;38101;53.126;6.878;2022-09-27T07:37:50;3.67;;;1.40;;
52102;SDS011;38101;53.126;6.878;2022-09-27T07:40:16;4.15;;;1.38;;
52102;SDS011;38101;53.126;6.878;2022-09-27T07:42:42;5.53;;;1.83;;
52102;SDS011;38101;53.126;6.878;2022-09-27T07:45:08;6.43;;;1.63;;
52102;SDS011;38101;53.126;6.878;2022-09-27T07:47:36;2.78;;;1.13;;
52102;SDS011;38101;53.126;6.878;2022-09-27T07:50:04;2.95;;;1.30;;
52102;SDS011;38101;53.126;6.878;2022-09-27T07:52:37;2.95;;;1.23;;
52102;SDS011;38101;53.126;6.878;2022-09-27T07:55:09;4.72;;;1.30;;
52102;SDS011;38101;53.126;6.878;2022-09-27T07:57:36;3.75;;;1.35;;
52102;SDS011;38101;53.126;6.878;2022-09-27T08:00:06;5.95;;;1.42;;
52102;SDS011;38101;53.126;6.878;2022-09-27T08:02:35;2.60;;;1.40;;
52102;SDS011;38101;53.126;6.878;2022-09-27T08:05:01;3.03;;;1.33;;
52102;SDS011;38101;53.126;6.878;2022-09-27T08:07:28;7.80;;;1.80;;
52102;SDS011;38101;53.126;6.878;2022-09-27T08:09:55;3.35;;;1.42;;
52102;SDS011;38101;53.126;6.878;2022-09-27T08:12:21;4.53;;;1.75;;
52102;SDS011;38101;53.126;6.878;2022-09-27T08:14:47;3.85;;;1.35;;
52102;SDS011;38101;53.126;6.878;2022-09-27T08:17:13;3.65;;;1.30;;
52102;SDS011;38101;53.126;6.878;2022-09-27T08:19:39;3.88;;;1.50;;
52102;SDS011;38101;53.126;6.878;2022-09-27T08:22:06;3.60;;;1.88;;
52102;SDS011;38101;53.126;6.878;2022-09-27T08:24:32;4.90;;;1.85;;
52102;SDS011;38101;53.126;6.878;2022-09-27T08:26:58;4.18;;;1.40;;
52102;SDS011;38101;53.126;6.878;2022-09-27T08:29:24;4.53;;;1.40;;
52102;SDS011;38101;53.126;6.878;2022-09-27T08:31:50;6.07;;;1.70;;
52102;SDS011;38101;53.126;6.878;2022-09-27T08:34:18;3.58;;;1.50;;
52102;SDS011;38101;53.126;6.878;2022-09-27T08:36:44;6.22;;;1.73;;
52102;SDS011;38101;53.126;6.878;2022-09-27T08:39:10;3.78;;;1.33;;
52102;SDS011;38101;53.126;6.878;2022-09-27T08:41:37;4.22;;;1.88;;
52102;SDS011;38101;53.126;6.878;2022-09-27T08:51:53;1.67;;;0.80;;
52102;SDS011;38101;53.126;6.878;2022-09-27T08:54:23;1.23;;;0.80;;
52102;SDS011;38101;53.126;6.878;2022-09-27T08:56:56;1.63;;;0.65;;
52102;SDS011;38101;53.126;6.878;2022-09-27T08:59:30;2.50;;;1.15;;
52102;SDS011;38101;53.126;6.878;2022-09-27T09:02:01;1.85;;;0.77;;
52102;SDS011;38101;53.126;6.878;2022-09-27T09:04:37;3.53;;;0.90;;
52102;SDS011;38101;53.126;6.878;2022-09-27T09:20:57;2.67;;;0.85;;
52102;SDS011;38101;53.126;6.878;2022-09-27T09:23:51;2.28;;;0.80;;
52102;SDS011;38101;53.126;6.878;2022-09-27T09:26:31;1.65;;;0.65;;
52102;SDS011;38101;53.126;6.878;2022-09-27T09:29:20;2.25;;;0.60;;
52102;SDS011;38101;53.126;6.878;2022-09-27T09:34:48;2.75;;;0.60;;
52102;SDS011;38101;53.126;6.878;2022-09-27T09:42:47;3.33;;;0.95;;
52102;SDS011;38101;53.126;6.878;2022-09-27T09:45:18;3.25;;;1.38;;
52102;SDS011;38101;53.126;6.878;2022-09-27T09:50:28;2.13;;;0.80;;
52102;SDS011;38101;53.126;6.878;2022-09-27T09:53:18;2.15;;;1.48;;
52102;SDS011;38101;53.126;6.878;2022-09-27T09:56:04;2.22;;;1.10;;
52102;SDS011;38101;53.126;6.878;2022-09-27T10:01:24;3.25;;;0.75;;
52102;SDS011;38101;53.126;6.878;2022-09-27T10:03:54;2.80;;;1.13;;
52102;SDS011;38101;53.126;6.878;2022-09-27T10:06:21;3.45;;;0.80;;
52102;SDS011;38101;53.126;6.878;2022-09-27T10:08:48;1.60;;;0.70;;
52102;SDS011;38101;53.126;6.878;2022-09-27T10:14:00;0.98;;;0.50;;
52102;SDS011;38101;53.126;6.878;2022-09-27T10:16:26;1.98;;;0.47;;
52102;SDS011;38101;53.126;6.878;2022-09-27T10:18:54;1.83;;;0.75;;
52102;SDS011;38101;53.126;6.878;2022-09-27T10:21:24;1.48;;;0.50;;
52102;SDS011;38101;53.126;6.878;2022-09-27T10:26:30;1.85;;;0.70;;
52102;SDS011;38101;53.126;6.878;2022-09-27T10:28:57;1.05;;;0.50;;
52102;SDS011;38101;53.126;6.878;2022-09-27T10:31:37;1.98;;;0.70;;
52102;SDS011;38101;53.126;6.878;2022-09-27T10:34:15;2.45;;;0.63;;
52102;SDS011;38101;53.126;6.878;2022-09-27T10:37:02;2.95;;;0.65;;
52102;SDS011;38101;53.126;6.878;2022-09-27T10:39:32;4.47;;;0.63;;
52102;SDS011;38101;53.126;6.878;2022-09-27T10:41:59;1.75;;;0.50;;
52102;SDS011;38101;53.126;6.878;2022-09-27T10:44:26;1.45;;;0.30;;
52102;SDS011;38101;53.126;6.878;2022-09-27T10:47:07;0.77;;;0.38;;
52102;SDS011;38101;53.126;6.878;2022-09-27T10:49:36;1.17;;;0.63;;
52102;SDS011;38101;53.126;6.878;2022-09-27T10:52:13;1.20;;;0.60;;
52102;SDS011;38101;53.126;6.878;2022-09-27T10:54:40;0.93;;;0.50;;
52102;SDS011;38101;53.126;6.878;2022-09-27T10:59:39;2.55;;;0.70;;
52102;SDS011;38101;53.126;6.878;2022-09-27T11:02:26;1.45;;;0.80;;
52102;SDS011;38101;53.126;6.878;2022-09-27T11:05:05;2.53;;;0.75;;
52102;SDS011;38101;53.126;6.878;2022-09-27T11:07:52;3.47;;;0.60;;
52102;SDS011;38101;53.126;6.878;2022-09-27T11:10:28;8.57;;;1.38;;
52102;SDS011;38101;53.126;6.878;2022-09-27T11:15:39;1.63;;;0.38;;
52102;SDS011;38101;53.126;6.878;2022-09-27T11:18:09;1.75;;;0.45;;
52102;SDS011;38101;53.126;6.878;2022-09-27T11:20:46;2.03;;;0.70;;
52102;SDS011;38101;53.126;6.878;2022-09-27T11:23:26;2.05;;;0.65;;
52102;SDS011;38101;53.126;6.878;2022-09-27T11:26:32;2.22;;;0.68;;
52102;SDS011;38101;53.126;6.878;2022-09-27T11:37:30;1.55;;;0.60;;
52102;SDS011;38101;53.126;6.878;2022-09-27T11:40:17;1.73;;;0.50;;
52102;SDS011;38101;53.126;6.878;2022-09-27T11:45:52;0.20;;;0.20;;
52102;SDS011;38101;53.126;6.878;2022-09-27T11:48:29;1.27;;;0.50;;
52102;SDS011;38101;53.126;6.878;2022-09-27T11:54:38;1.35;;;0.30;;
52102;SDS011;38101;53.126;6.878;2022-09-27T12:07:55;0.95;;;0.45;;
52102;SDS011;38101;53.126;6.878;2022-09-27T12:10:26;1.65;;;0.50;;
52102;SDS011;38101;53.126;6.878;2022-09-27T12:12:53;2.28;;;0.60;;
52102;SDS011;38101;53.126;6.878;2022-09-27T12:15:23;0.80;;;0.43;;
52102;SDS011;38101;53.126;6.878;2022-09-27T12:17:59;1.85;;;0.52;;
52102;SDS011;38101;53.126;6.878;2022-09-27T12:20:53;1.38;;;0.60;;
52102;SDS011;38101;53.126;6.878;2022-09-27T12:23:21;1.83;;;0.43;;
52102;SDS011;38101;53.126;6.878;2022-09-27T12:25:55;0.43;;;0.30;;
52102;SDS011;38101;53.126;6.878;2022-09-27T12:31:22;1.33;;;0.47;;
52102;SDS011;38101;53.126;6.878;2022-09-27T12:34:24;2.25;;;0.68;;
52102;SDS011;38101;53.126;6.878;2022-09-27T12:37:15;0.77;;;0.57;;
52102;SDS011;38101;53.126;6.878;2022-09-27T12:40:00;2.30;;;0.90;;
52102;SDS011;38101;53.126;6.878;2022-09-27T12:42:38;4.60;;;1.20;;
52102;SDS011;38101;53.126;6.878;2022-09-27T12:45:10;2.28;;;0.70;;
52102;SDS011;38101;53.126;6.878;2022-09-27T12:47:56;3.78;;;1.00;;
52102;SDS011;38101;53.126;6.878;2022-09-27T12:50:43;0.85;;;0.63;;
52102;SDS011;38101;53.126;6.878;2022-09-27T12:53:24;2.38;;;1.00;;
52102;SDS011;38101;53.126;6.878;2022-09-27T13:12:37;2.13;;;0.60;;
52102;SDS011;38101;53.126;6.878;2022-09-27T13:23:00;1.40;;;0.60;;
52102;SDS011;38101;53.126;6.878;2022-09-27T13:31:01;2.95;;;0.82;;
52102;SDS011;38101;53.126;6.878;2022-09-27T13:33:44;2.38;;;0.90;;
52102;SDS011;38101;53.126;6.878;2022-09-27T13:36:19;3.35;;;1.30;;
52102;SDS011;38101;53.126;6.878;2022-09-27T13:41:25;2.85;;;1.00;;
52102;SDS011;38101;53.126;6.878;2022-09-27T13:44:03;1.20;;;0.90;;
52102;SDS011;38101;53.126;6.878;2022-09-27T13:46:55;0.77;;;0.60;;
52102;SDS011;38101;53.126;6.878;2022-09-27T13:49:35;2.20;;;0.98;;
52102;SDS011;38101;53.126;6.878;2022-09-27T14:00:11;2.47;;;1.00;;
52102;SDS011;38101;53.126;6.878;2022-09-27T14:05:36;2.00;;;1.15;;
52102;SDS011;38101;53.126;6.878;2022-09-27T14:08:05;1.92;;;1.00;;
52102;SDS011;38101;53.126;6.878;2022-09-27T14:10:38;1.95;;;1.13;;
52102;SDS011;38101;53.126;6.878;2022-09-27T14:13:07;3.45;;;1.42;;
52102;SDS011;38101;53.126;6.878;2022-09-27T14:15:35;2.13;;;0.77;;
52102;SDS011;38101;53.126;6.878;2022-09-27T14:18:01;1.20;;;0.45;;
52102;SDS011;38101;53.126;6.878;2022-09-27T14:20:28;0.75;;;0.40;;
52102;SDS011;38101;53.126;6.878;2022-09-27T14:22:56;0.38;;;0.38;;
52102;SDS011;38101;53.126;6.878;2022-09-27T14:25:22;1.35;;;0.40;;
52102;SDS011;38101;53.126;6.878;2022-09-27T14:27:49;0.45;;;0.35;;
52102;SDS011;38101;53.126;6.878;2022-09-27T14:30:19;0.90;;;0.35;;
52102;SDS011;38101;53.126;6.878;2022-09-27T14:32:47;1.23;;;0.35;;
52102;SDS011;38101;53.126;6.878;2022-09-27T14:35:16;0.47;;;0.20;;
52102;SDS011;38101;53.126;6.878;2022-09-27T14:38:03;0.57;;;0.35;;
52102;SDS011;38101;53.126;6.878;2022-09-27T14:40:41;4.70;;;0.77;;
52102;SDS011;38101;53.126;6.878;2022-09-27T14:43:18;2.05;;;0.68;;
52102;SDS011;38101;53.126;6.878;2022-09-27T14:45:46;2.20;;;0.85;;
52102;SDS011;38101;53.126;6.878;2022-09-27T14:48:22;1.75;;;0.57;;
52102;SDS011;38101;53.126;6.878;2022-09-27T14:50:54;1.63;;;0.60;;
52102;SDS011;38101;53.126;6.878;2022-09-27T14:53:24;1.80;;;0.57;;
52102;SDS011;38101;53.126;6.878;2022-09-27T14:55:51;2.10;;;0.70;;
52102;SDS011;38101;53.126;6.878;2022-09-27T14:58:20;1.77;;;0.82;;
52102;SDS011;38101;53.126;6.878;2022-09-27T15:00:53;2.23;;;0.70;;
52102;SDS011;38101;53.126;6.878;2022-09-27T15:03:27;1.00;;;0.70;;
52102;SDS011;38101;53.126;6.878;2022-09-27T15:05:55;1.88;;;0.70;;
52102;SDS011;38101;53.126;6.878;2022-09-27T15:08:24;2.88;;;0.80;;
52102;SDS011;38101;53.126;6.878;2022-09-27T15:10:54;0.75;;;0.70;;
52102;SDS011;38101;53.126;6.878;2022-09-27T15:13:21;0.68;;;0.60;;
52102;SDS011;38101;53.126;6.878;2022-09-27T15:15:48;1.40;;;0.80;;
52102;SDS011;38101;53.126;6.878;2022-09-27T15:20:58;0.95;;;0.70;;
52102;SDS011;38101;53.126;6.878;2022-09-27T15:23:25;1.20;;;0.60;;
52102;SDS011;38101;53.126;6.878;2022-09-27T15:28:57;1.08;;;0.90;;
52102;SDS011;38101;53.126;6.878;2022-09-27T15:31:33;1.50;;;1.00;;
52102;SDS011;38101;53.126;6.878;2022-09-27T15:33:59;2.25;;;0.80;;
52102;SDS011;38101;53.126;6.878;2022-09-27T15:39:16;1.73;;;1.15;;
52102;SDS011;38101;53.126;6.878;2022-09-27T15:44:36;2.35;;;1.40;;
52102;SDS011;38101;53.126;6.878;2022-09-27T15:52:40;1.55;;;0.98;;
52102;SDS011;38101;53.126;6.878;2022-09-27T15:55:11;2.33;;;1.23;;
52102;SDS011;38101;53.126;6.878;2022-09-27T15:57:41;1.65;;;0.93;;
52102;SDS011;38101;53.126;6.878;2022-09-27T16:00:12;1.77;;;1.17;;
52102;SDS011;38101;53.126;6.878;2022-09-27T16:02:42;1.70;;;1.20;;
52102;SDS011;38101;53.126;6.878;2022-09-27T16:05:09;2.17;;;1.42;;
52102;SDS011;38101;53.126;6.878;2022-09-27T16:07:34;1.63;;;0.98;;
52102;SDS011;38101;53.126;6.878;2022-09-27T16:10:00;2.08;;;1.15;;
52102;SDS011;38101;53.126;6.878;2022-09-27T16:12:26;4.55;;;1.65;;
52102;SDS011;38101;53.126;6.878;2022-09-27T16:14:54;1.58;;;1.20;;
52102;SDS011;38101;53.126;6.878;2022-09-27T16:17:21;2.95;;;1.70;;
52102;SDS011;38101;53.126;6.878;2022-09-27T16:19:46;3.42;;;1.40;;
52102;SDS011;38101;53.126;6.878;2022-09-27T16:22:12;4.80;;;1.60;;
52102;SDS011;38101;53.126;6.878;2022-09-27T16:24:38;2.72;;;1.60;;
52102;SDS011;38101;53.126;6.878;2022-09-27T16:27:03;3.30;;;1.30;;
52102;SDS011;38101;53.126;6.878;2022-09-27T16:29:29;3.20;;;1.38;;
52102;SDS011;38101;53.126;6.878;2022-09-27T16:31:55;2.42;;;1.30;;
52102;SDS011;38101;53.126;6.878;2022-09-27T16:34:21;4.60;;;1.40;;
52102;SDS011;38101;53.126;6.878;2022-09-27T16:36:48;3.00;;;0.98;;
52102;SDS011;38101;53.126;6.878;2022-09-27T16:39:14;3.33;;;1.33;;
52102;SDS011;38101;53.126;6.878;2022-09-27T16:41:40;2.65;;;1.10;;
52102;SDS011;38101;53.126;6.878;2022-09-27T16:44:06;1.77;;;1.17;;
52102;SDS011;38101;53.126;6.878;2022-09-27T16:46:39;3.40;;;1.30;;
52102;SDS011;38101;53.126;6.878;2022-09-27T16:49:06;2.75;;;1.30;;
52102;SDS011;38101;53.126;6.878;2022-09-27T16:51:51;2.17;;;1.10;;
52102;SDS011;38101;53.126;6.878;2022-09-27T16:54:26;1.77;;;1.10;;
52102;SDS011;38101;53.126;6.878;2022-09-27T16:56:54;2.20;;;1.30;;
52102;SDS011;38101;53.126;6.878;2022-09-27T16:59:20;2.25;;;1.27;;
52102;SDS011;38101;53.126;6.878;2022-09-27T17:01:48;2.63;;;1.40;;
52102;SDS011;38101;53.126;6.878;2022-09-27T17:04:14;3.53;;;1.30;;
52102;SDS011;38101;53.126;6.878;2022-09-27T17:06:40;3.97;;;1.67;;
52102;SDS011;38101;53.126;6.878;2022-09-27T17:09:06;2.55;;;1.20;;
52102;SDS011;38101;53.126;6.878;2022-09-27T17:11:33;3.17;;;1.40;;
52102;SDS011;38101;53.126;6.878;2022-09-27T17:13:59;2.35;;;1.08;;
52102;SDS011;38101;53.126;6.878;2022-09-27T17:16:25;2.03;;;1.15;;
52102;SDS011;38101;53.126;6.878;2022-09-27T17:18:52;4.88;;;1.50;;
52102;SDS011;38101;53.126;6.878;2022-09-27T17:21:18;3.40;;;1.58;;
52102;SDS011;38101;53.126;6.878;2022-09-27T17:23:44;2.45;;;1.50;;
52102;SDS011;38101;53.126;6.878;2022-09-27T17:28:44;4.35;;;1.40;;
52102;SDS011;38101;53.126;6.878;2022-09-27T17:31:12;2.00;;;1.58;;
52102;SDS011;38101;53.126;6.878;2022-09-27T17:33:44;2.70;;;1.40;;
52102;SDS011;38101;53.126;6.878;2022-09-27T17:36:22;2.65;;;1.15;;
52102;SDS011;38101;53.126;6.878;2022-09-27T17:38:50;3.38;;;1.60;;
52102;SDS011;38101;53.126;6.878;2022-09-27T17:41:18;3.47;;;1.42;;
52102;SDS011;38101;53.126;6.878;2022-09-27T17:43:47;6.00;;;1.58;;
52102;SDS011;38101;53.126;6.878;2022-09-27T17:46:19;2.13;;;1.02;;
52102;SDS011;38101;53.126;6.878;2022-09-27T17:48:46;1.83;;;1.23;;
52102;SDS011;38101;53.126;6.878;2022-09-27T17:51:34;2.65;;;1.10;;
52102;SDS011;38101;53.126;6.878;2022-09-27T17:54:02;2.88;;;1.40;;
52102;SDS011;38101;53.126;6.878;2022-09-27T17:56:29;3.20;;;1.65;;
52102;SDS011;38101;53.126;6.878;2022-09-27T17:58:58;6.13;;;2.53;;
52102;SDS011;38101;53.126;6.878;2022-09-27T18:01:25;6.25;;;2.65;;
52102;SDS011;38101;53.126;6.878;2022-09-27T18:03:55;3.33;;;1.70;;
52102;SDS011;38101;53.126;6.878;2022-09-27T18:06:23;4.30;;;2.10;;
52102;SDS011;38101;53.126;6.878;2022-09-27T18:08:50;2.47;;;1.42;;
52102;SDS011;38101;53.126;6.878;2022-09-27T18:11:18;2.90;;;1.73;;
52102;SDS011;38101;53.126;6.878;2022-09-27T18:13:49;2.10;;;1.08;;
52102;SDS011;38101;53.126;6.878;2022-09-27T18:16:18;2.40;;;1.17;;
52102;SDS011;38101;53.126;6.878;2022-09-27T18:18:46;2.63;;;1.00;;
52102;SDS011;38101;53.126;6.878;2022-09-27T18:21:14;1.88;;;0.95;;
52102;SDS011;38101;53.126;6.878;2022-09-27T18:23:46;1.65;;;1.10;;